This is the latest recevied weather packets stored in our database for station/object SQ9RHX-13. If no packets are shown the sender has not sent any weather packets the latest 1 day(s).
| Time | Temp. | Humidity | Pressure | Rain* | Wind** | Luminosity | Snow |
|---|---|---|---|---|---|---|---|
| 1778064903 | 21.11° C | 51% | 1009.9 hPa | 0 mm | - | 265 W/m² | - |
| 1778064305 | 20.56° C | 52% | 1009.9 hPa | 0 mm | - | 178 W/m² | - |
| 1778061605 | 21.67° C | 50% | 1010 hPa | 0 mm | - | 579 W/m² | - |
| 1778061304 | 21.67° C | 51% | 1009.9 hPa | 0 mm | - | 782 W/m² | - |
| 1778060704 | 21.11° C | 53% | 1009.8 hPa | 0 mm | - | 578 W/m² | - |
| 1778060403 | 21.11° C | 54% | 1009.9 hPa | 0 mm | - | 465 W/m² | - |
| 1778058904 | 20° C | 60% | 1010 hPa | 0 mm | - | 225 W/m² | - |
| 1778057104 | 20° C | 59% | 1009.6 hPa | 0 mm | - | 247 W/m² | - |
| 1778056503 | 20.56° C | 59% | 1009.7 hPa | 0 mm | - | 334 W/m² | - |
| 1778055605 | 20° C | 60% | 1009.7 hPa | 0 mm | - | 384 W/m² | - |
| 1778055002 | 20° C | 61% | 1009.7 hPa | 0 mm | - | 265 W/m² | - |
| 1778054703 | 19.44° C | 63% | 1009.8 hPa | 0 mm | - | 402 W/m² | - |
| 1778053506 | 19.44° C | 63% | 1009.6 hPa | 0 mm | - | 402 W/m² | - |
| 1778052903 | 19.44° C | 64% | 1009.6 hPa | 0 mm | - | 525 W/m² | - |
| 1778051703 | 17.78° C | 69% | 1009.2 hPa | 0 mm | - | 365 W/m² | - |
| 1778050503 | 17.78° C | 69% | 1009.4 hPa | 0 mm | - | 308 W/m² | - |
| 1778049903 | 17.22° C | 69% | 1009.5 hPa | 0 mm | - | 282 W/m² | - |
| 1778048406 | 15° C | 75% | 1009.3 hPa | 0 mm | - | 223 W/m² | - |
| 1778048104 | 14.44° C | 77% | 1009.6 hPa | 0 mm | - | 63 W/m² | - |
| 1778047805 | 13.89° C | 79% | 1009.5 hPa | 0 mm | - | 190 W/m² | - |
| 1778047503 | 14.44° C | 78% | 1009.4 hPa | 0 mm | - | 41 W/m² | - |
| 1778046006 | 13.33° C | 80% | 1009.1 hPa | 0 mm | - | 52 W/m² | - |
| 1778045704 | 13.33° C | 81% | 1009 hPa | 0 mm | - | 76 W/m² | - |
| 1778042703 | 12.78° C | 85% | 1008.8 hPa | 0 mm | - | 69 W/m² | - |
| 1778042104 | 12.22° C | 88% | 1008.9 hPa | 0 mm | - | 65 W/m² | - |
* Rain latest hour (hover to see other rain measurements)
** Current wind speed in m/s (hover to see current wind gust speed)